createdAt,value
2019-01-16T00:01:52.389Z,6.30
2019-01-16T00:04:35.095Z,7.03
2019-01-16T00:07:20.838Z,6.50
2019-01-16T00:09:57.464Z,6.40
2019-01-16T00:12:52.026Z,6.40
2019-01-16T00:15:36.595Z,6.53
2019-01-16T00:18:32.939Z,6.60
2019-01-16T00:21:23.023Z,6.17
2019-01-16T00:24:13.409Z,6.23
2019-01-16T00:27:06.668Z,6.67
2019-01-16T00:30:03.676Z,6.73
2019-01-16T00:32:50.999Z,6.73
2019-01-16T00:35:41.247Z,6.93
2019-01-16T00:38:25.414Z,6.77
2019-01-16T00:41:10.789Z,6.70
2019-01-16T00:43:56.846Z,6.53
2019-01-16T00:46:36.649Z,6.33
2019-01-16T00:49:22.825Z,6.30
2019-01-16T00:52:26.427Z,6.10
2019-01-16T00:55:28.837Z,5.30
2019-01-16T00:58:14.622Z,5.47
2019-01-16T01:01:01.821Z,5.60
2019-01-16T01:04:04.073Z,5.30
2019-01-16T01:07:00.110Z,5.23
2019-01-16T01:09:50.057Z,5.23
2019-01-16T01:12:38.139Z,5.23
2019-01-16T01:15:13.961Z,5.60
2019-01-16T01:18:01.118Z,5.30
2019-01-16T01:20:53.759Z,5.60
2019-01-16T01:23:40.912Z,5.17
2019-01-16T01:26:28.046Z,5.13
2019-01-16T01:29:13.907Z,4.83
2019-01-16T01:32:19.431Z,4.90
2019-01-16T01:35:12.266Z,4.70
2019-01-16T01:37:57.784Z,4.67
2019-01-16T01:41:03.013Z,4.80
2019-01-16T01:43:50.122Z,4.00
2019-01-16T01:46:36.104Z,4.53
2019-01-16T01:49:29.093Z,4.90
2019-01-16T01:52:15.077Z,4.23
2019-01-16T01:54:57.997Z,3.93
2019-01-16T01:57:51.033Z,4.17
2019-01-16T02:00:53.424Z,4.20
2019-01-16T02:03:58.702Z,4.70
2019-01-16T02:06:44.546Z,4.60
2019-01-16T02:09:43.776Z,4.03
2019-01-16T02:12:20.924Z,3.50
2019-01-16T02:14:59.049Z,3.50
2019-01-16T02:17:52.282Z,3.87
2019-01-16T02:20:53.165Z,3.90
2019-01-16T02:23:52.579Z,3.00
2019-01-16T02:26:39.145Z,3.40
2019-01-16T02:29:26.308Z,3.60
2019-01-16T02:32:16.297Z,3.40
2019-01-16T02:35:12.454Z,3.37
2019-01-16T02:37:51.027Z,3.30
2019-01-16T02:40:48.671Z,3.57
2019-01-16T02:43:35.873Z,3.67
2019-01-16T02:46:26.006Z,3.40
2019-01-16T02:49:13.300Z,3.40
2019-01-16T02:52:09.717Z,3.43
2019-01-16T02:54:48.845Z,6.30
2019-01-16T02:57:34.588Z,6.63
2019-01-16T03:00:21.735Z,5.60
2019-01-16T03:03:09.057Z,5.00
2019-01-16T03:05:58.929Z,5.07
2019-01-16T03:08:37.602Z,4.23
2019-01-16T03:11:27.135Z,4.03
2019-01-16T03:14:13.246Z,4.17
2019-01-16T03:17:15.318Z,4.20
2019-01-16T03:20:00.863Z,4.53
2019-01-16T03:22:47.100Z,4.37
2019-01-16T03:25:46.326Z,4.40
2019-01-16T03:28:36.861Z,4.97
2019-01-16T03:31:16.455Z,4.43
2019-01-16T03:34:06.606Z,4.40
2019-01-16T03:36:52.123Z,4.00
2019-01-16T03:39:46.140Z,3.70
2019-01-16T03:42:42.050Z,4.10
2019-01-16T03:45:22.429Z,3.97
2019-01-16T03:48:09.575Z,4.07
2019-01-16T03:51:06.019Z,4.17
2019-01-16T03:53:49.778Z,4.60
2019-01-16T03:56:39.546Z,4.40
2019-01-16T03:59:25.677Z,4.40
2019-01-16T04:02:18.808Z,4.00
2019-01-16T04:05:04.597Z,3.63
2019-01-16T04:08:01.120Z,3.90
2019-01-16T04:11:06.738Z,3.67
2019-01-16T04:13:53.206Z,4.03
2019-01-16T04:16:49.564Z,3.90
2019-01-16T04:19:39.547Z,3.73
2019-01-16T04:22:39.568Z,3.70
2019-01-16T04:25:26.822Z,3.57
2019-01-16T04:28:12.702Z,4.00
2019-01-16T04:31:05.909Z,3.60
2019-01-16T04:33:59.473Z,3.47
2019-01-16T04:36:55.589Z,3.80
2019-01-16T04:39:45.208Z,9.20
2019-01-16T04:42:41.106Z,6.67
2019-01-16T04:45:20.399Z,6.97
2019-01-16T04:48:16.648Z,7.90
2019-01-16T04:51:12.525Z,7.03
2019-01-16T04:54:03.921Z,7.30
2019-01-16T04:57:09.241Z,6.63
2019-01-16T04:59:59.145Z,6.87
2019-01-16T05:02:44.780Z,7.17
2019-01-16T05:05:30.592Z,7.93
2019-01-16T05:08:20.506Z,7.37
2019-01-16T05:11:16.712Z,7.33
2019-01-16T05:14:01.048Z,7.40
2019-01-16T05:16:39.490Z,7.73
2019-01-16T05:19:38.564Z,7.80
2019-01-16T05:22:27.600Z,7.53
2019-01-16T05:25:17.562Z,7.37
2019-01-16T05:28:03.739Z,8.03
2019-01-16T05:31:01.725Z,7.47
2019-01-16T05:33:37.602Z,8.43
2019-01-16T05:36:30.795Z,6.97
2019-01-16T05:39:18.430Z,7.23
2019-01-16T05:42:05.136Z,6.70
2019-01-16T05:44:56.979Z,6.73
2019-01-16T05:47:53.316Z,7.30
2019-01-16T05:50:32.431Z,7.27
2019-01-16T05:53:25.623Z,6.80
2019-01-16T05:56:27.947Z,6.83
2019-01-16T05:59:11.349Z,6.97
2019-01-16T06:01:58.638Z,7.53
2019-01-16T06:04:53.436Z,7.73
2019-01-16T06:07:35.446Z,8.37
2019-01-16T06:10:29.594Z,8.37
2019-01-16T06:13:24.690Z,8.03
2019-01-16T06:16:14.804Z,8.40
2019-01-16T06:19:07.690Z,8.87
2019-01-16T06:21:53.375Z,7.83
2019-01-16T06:24:39.202Z,10.83
2019-01-16T06:27:29.534Z,9.13
2019-01-16T06:30:26.037Z,9.97
2019-01-16T06:33:11.515Z,9.97
2019-01-16T06:35:57.245Z,9.03
2019-01-16T06:38:50.582Z,9.97
2019-01-16T06:41:55.598Z,10.07
2019-01-16T06:44:42.666Z,10.53
2019-01-16T06:47:21.552Z,10.13
2019-01-16T06:50:17.575Z,10.00
2019-01-16T06:53:04.718Z,12.10
2019-01-16T06:55:54.442Z,13.17
2019-01-16T06:58:34.320Z,14.73
2019-01-16T07:01:13.391Z,15.13
2019-01-16T07:04:07.716Z,13.87
2019-01-16T07:06:55.796Z,13.53
2019-01-16T07:09:36.070Z,13.37
2019-01-16T07:12:32.162Z,12.93
2019-01-16T07:15:18.296Z,14.30
2019-01-16T07:18:11.657Z,16.37
2019-01-16T07:20:48.230Z,14.17
2019-01-16T07:23:40.935Z,15.23
2019-01-16T07:26:39.928Z,14.13
2019-01-16T07:29:41.998Z,14.33
2019-01-16T07:32:47.449Z,13.03
2019-01-16T07:35:43.667Z,12.90
2019-01-16T07:38:22.548Z,12.60
2019-01-16T07:41:08.196Z,11.50
2019-01-16T07:43:53.917Z,12.20
2019-01-16T07:46:31.549Z,12.23
2019-01-16T07:49:21.538Z,12.80
2019-01-16T07:52:17.540Z,11.37
2019-01-16T07:55:06.066Z,12.57
2019-01-16T07:57:44.538Z,13.20
2019-01-16T08:00:32.364Z,12.07
2019-01-16T08:03:19.579Z,13.33
2019-01-16T08:06:05.139Z,13.27
2019-01-16T08:08:55.092Z,13.80
2019-01-16T08:11:36.048Z,14.20
2019-01-16T08:14:21.807Z,13.80
2019-01-16T08:17:08.459Z,13.73
2019-01-16T08:19:51.702Z,14.03
2019-01-16T08:22:29.687Z,13.33
2019-01-16T08:25:17.257Z,13.40
2019-01-16T08:28:13.612Z,12.70
2019-01-16T08:31:07.520Z,12.07
2019-01-16T08:33:57.818Z,12.87
2019-01-16T08:36:42.580Z,12.57
2019-01-16T08:39:29.676Z,14.90
2019-01-16T08:42:15.400Z,14.80
2019-01-16T08:45:08.402Z,14.03
2019-01-16T08:47:54.068Z,14.07
2019-01-16T08:50:51.716Z,13.43
2019-01-16T08:53:51.006Z,13.23
2019-01-16T08:56:44.217Z,11.50
2019-01-16T08:59:35.593Z,12.30
2019-01-16T09:02:32.079Z,12.17
2019-01-16T09:05:17.861Z,11.87
2019-01-16T09:08:17.376Z,11.30
2019-01-16T09:11:05.533Z,10.60
2019-01-16T09:13:50.295Z,13.70
2019-01-16T09:16:37.584Z,12.17
2019-01-16T09:19:29.126Z,12.17
2019-01-16T09:22:22.484Z,11.77
2019-01-16T09:25:18.471Z,10.27
2019-01-16T09:28:08.487Z,10.50
2019-01-16T09:31:07.821Z,11.60
2019-01-16T09:34:00.814Z,10.53
2019-01-16T09:36:50.888Z,9.63
2019-01-16T09:39:41.391Z,10.20
2019-01-16T09:42:32.288Z,9.40
2019-01-16T09:45:27.020Z,10.30
2019-01-16T09:48:14.558Z,10.23
2019-01-16T09:51:04.496Z,10.00
2019-01-16T09:54:06.673Z,10.40
2019-01-16T09:56:59.873Z,11.27
2019-01-16T09:59:59.502Z,10.53
2019-01-16T10:02:45.047Z,10.73
2019-01-16T10:05:30.756Z,11.17
2019-01-16T10:08:20.585Z,10.10
2019-01-16T10:11:10.514Z,10.30
2019-01-16T10:14:05.109Z,10.40
2019-01-16T10:17:10.629Z,7.93
2019-01-16T10:19:56.855Z,10.43
2019-01-16T10:22:58.833Z,10.20
2019-01-16T10:25:53.274Z,9.00
2019-01-16T10:28:36.806Z,9.07
2019-01-16T10:31:23.915Z,9.43
2019-01-16T10:34:11.017Z,9.40
2019-01-16T10:37:03.832Z,8.80
2019-01-16T10:39:50.938Z,11.93
2019-01-16T10:42:41.405Z,15.43
2019-01-16T10:45:19.699Z,16.83
2019-01-16T10:48:09.749Z,18.33
2019-01-16T10:50:46.983Z,19.10
2019-01-16T10:53:43.198Z,19.93
2019-01-16T10:56:45.519Z,19.70
2019-01-16T10:59:50.784Z,17.07
2019-01-16T11:02:38.053Z,19.13
2019-01-16T11:05:33.921Z,19.27
2019-01-16T11:08:08.719Z,18.03
2019-01-16T11:10:58.707Z,17.80
2019-01-16T11:13:57.926Z,18.50
2019-01-16T11:16:43.882Z,19.47
2019-01-16T11:19:43.175Z,18.70
2019-01-16T11:22:26.804Z,20.57
2019-01-16T11:25:29.153Z,20.67
2019-01-16T11:28:25.247Z,20.60
2019-01-16T11:31:18.023Z,22.13
2019-01-16T11:34:05.232Z,21.10
2019-01-16T11:36:58.283Z,21.00
2019-01-16T11:39:53.917Z,21.43
2019-01-16T11:42:39.679Z,19.90
2019-01-16T11:45:25.395Z,20.27
2019-01-16T11:48:08.310Z,19.37
2019-01-16T11:51:10.473Z,19.87
2019-01-16T11:54:00.280Z,20.57
2019-01-16T11:56:44.213Z,20.23
2019-01-16T11:59:29.764Z,20.53
2019-01-16T12:02:38.374Z,21.00
2019-01-16T12:05:30.132Z,19.83
2019-01-16T12:08:17.377Z,19.73
2019-01-16T12:11:03.212Z,20.03
2019-01-16T12:14:02.389Z,21.03
2019-01-16T12:16:48.224Z,19.63
2019-01-16T12:19:27.458Z,20.23
2019-01-16T12:22:12.698Z,19.83
2019-01-16T12:24:51.289Z,21.60
2019-01-16T12:27:36.645Z,19.57
2019-01-16T12:30:27.517Z,19.77
2019-01-16T12:33:10.149Z,19.33
2019-01-16T12:35:57.381Z,20.63
2019-01-16T12:38:56.334Z,21.43
2019-01-16T12:41:59.379Z,22.27
2019-01-16T12:44:44.511Z,20.23
2019-01-16T12:47:46.601Z,23.93
2019-01-16T12:50:52.007Z,21.97
2019-01-16T12:53:44.866Z,23.63
2019-01-16T12:56:43.867Z,23.40
2019-01-16T12:59:46.226Z,20.63
2019-01-16T13:02:31.929Z,23.87
2019-01-16T13:05:34.257Z,22.63
2019-01-16T13:08:24.054Z,20.67
2019-01-16T13:11:11.191Z,18.40
2019-01-16T13:13:58.408Z,18.83
2019-01-16T13:16:44.230Z,16.97
2019-01-16T13:19:46.657Z,17.73
2019-01-16T13:22:28.753Z,17.90
2019-01-16T13:25:16.040Z,16.27
2019-01-16T13:28:10.039Z,17.67
2019-01-16T13:31:06.119Z,16.40
2019-01-16T13:33:59.833Z,17.70
2019-01-16T13:36:41.034Z,17.10
2019-01-16T13:39:26.072Z,15.17
2019-01-16T13:42:11.807Z,16.37
2019-01-16T13:45:01.519Z,18.33
2019-01-16T13:48:04.279Z,16.30
2019-01-16T13:50:42.829Z,16.43
2019-01-16T13:53:30.030Z,16.40
2019-01-16T13:56:15.535Z,15.30
2019-01-16T13:59:02.635Z,16.23
2019-01-16T14:01:47.049Z,17.23
2019-01-16T14:04:37.102Z,17.40
2019-01-16T14:07:27.399Z,18.67
2019-01-16T14:10:13.325Z,17.70
2019-01-16T14:12:59.226Z,21.00
2019-01-16T14:15:43.897Z,41.87
2019-01-16T14:18:26.680Z,23.03
2019-01-16T14:21:16.709Z,21.13
2019-01-16T14:24:20.229Z,20.23
2019-01-16T14:27:15.714Z,19.43
2019-01-16T14:29:54.385Z,19.23
2019-01-16T14:32:41.579Z,18.97
2019-01-16T14:35:43.769Z,20.10
2019-01-16T14:38:37.426Z,19.83
2019-01-16T14:41:22.890Z,21.70
2019-01-16T14:44:12.849Z,19.50
2019-01-16T14:46:58.414Z,19.97
2019-01-16T14:50:00.739Z,18.47
2019-01-16T14:52:46.168Z,19.00
2019-01-16T14:55:30.742Z,19.60
2019-01-16T14:58:20.363Z,19.50
2019-01-16T15:01:06.145Z,20.33
2019-01-16T15:03:59.623Z,21.93
2019-01-16T15:06:46.811Z,20.53
2019-01-16T15:09:35.834Z,19.00
2019-01-16T15:12:23.346Z,19.60
2019-01-16T15:15:14.030Z,19.33
2019-01-16T15:17:54.119Z,19.30
2019-01-16T15:20:39.589Z,16.53
2019-01-16T15:23:31.248Z,14.70
2019-01-16T15:26:18.441Z,14.70
2019-01-16T15:29:08.943Z,23.00
2019-01-16T15:32:01.845Z,19.73
2019-01-16T15:34:56.076Z,19.57
2019-01-16T15:37:42.042Z,18.10
2019-01-16T15:40:42.711Z,19.73
2019-01-16T15:43:23.841Z,19.47
2019-01-16T15:46:22.787Z,21.37
2019-01-16T15:49:12.307Z,20.10
2019-01-16T15:51:59.452Z,19.03
2019-01-16T15:54:44.926Z,20.17
2019-01-16T15:57:24.724Z,20.80
2019-01-16T16:00:17.744Z,23.23
2019-01-16T16:02:59.566Z,23.03
2019-01-16T16:05:55.573Z,22.60
2019-01-16T16:08:41.507Z,20.53
2019-01-16T16:11:31.834Z,16.77
2019-01-16T16:14:34.207Z,15.00
2019-01-16T16:17:33.484Z,14.93
2019-01-16T16:20:20.788Z,13.73
2019-01-16T16:23:20.005Z,11.70
2019-01-16T16:26:10.388Z,11.77
2019-01-16T16:28:56.452Z,18.53
2019-01-16T16:31:41.971Z,12.77
2019-01-16T16:34:27.881Z,11.03
2019-01-16T16:37:15.017Z,11.03
2019-01-16T16:40:02.189Z,11.07
2019-01-16T16:42:46.625Z,10.97
2019-01-16T16:45:33.874Z,9.87
2019-01-16T16:48:24.691Z,10.33
2019-01-16T16:51:21.007Z,10.30
2019-01-16T16:54:06.534Z,9.67
2019-01-16T16:56:52.590Z,9.20
2019-01-16T16:59:34.336Z,8.80
2019-01-16T17:02:30.400Z,13.07
2019-01-16T17:05:24.935Z,13.83
2019-01-16T17:08:15.573Z,23.17
2019-01-16T17:10:58.865Z,27.17
2019-01-16T17:13:52.070Z,25.87
2019-01-16T17:16:34.153Z,23.63
2019-01-16T17:19:19.925Z,22.53
2019-01-16T17:22:19.613Z,22.00
2019-01-16T17:25:09.930Z,19.20
2019-01-16T17:27:55.831Z,19.17
2019-01-16T17:30:49.217Z,17.17
2019-01-16T17:33:32.432Z,17.87
2019-01-16T17:36:09.675Z,15.97
2019-01-16T17:38:55.173Z,15.67
2019-01-16T17:41:41.210Z,14.60
2019-01-16T17:44:27.161Z,13.93
2019-01-16T17:47:23.639Z,12.70
2019-01-16T17:50:11.394Z,13.60
2019-01-16T17:52:57.271Z,13.10
2019-01-16T17:55:43.181Z,12.30
2019-01-16T17:58:36.652Z,13.43
2019-01-16T18:01:33.606Z,14.37
2019-01-16T18:04:12.377Z,14.70
2019-01-16T18:06:58.895Z,16.20
2019-01-16T18:09:55.005Z,15.27
2019-01-16T18:12:48.196Z,17.07
2019-01-16T18:15:41.061Z,16.50
2019-01-16T18:18:29.695Z,16.77
2019-01-16T18:21:19.905Z,18.03
2019-01-16T18:24:08.429Z,19.00
2019-01-16T18:26:59.345Z,14.90
2019-01-16T18:29:57.184Z,13.93
2019-01-16T18:32:50.495Z,13.67
2019-01-16T18:35:53.249Z,13.90
2019-01-16T18:38:41.466Z,14.97
2019-01-16T18:41:31.748Z,14.37
2019-01-16T18:44:28.257Z,13.97
2019-01-16T18:47:15.523Z,13.77
2019-01-16T18:50:02.792Z,13.60
2019-01-16T18:53:01.745Z,13.80
2019-01-16T18:55:48.775Z,15.40
2019-01-16T18:58:34.904Z,15.63
2019-01-16T19:01:28.239Z,15.87
2019-01-16T19:04:06.650Z,18.53
2019-01-16T19:06:56.607Z,17.90
2019-01-16T19:10:02.165Z,17.97
2019-01-16T19:12:49.426Z,17.27
2019-01-16T19:15:24.087Z,17.40
2019-01-16T19:18:01.939Z,18.10
2019-01-16T19:20:46.702Z,17.43
2019-01-16T19:23:23.308Z,17.37
2019-01-16T19:26:03.953Z,16.77
2019-01-16T19:28:51.203Z,16.40
2019-01-16T19:31:36.831Z,17.10
2019-01-16T19:34:30.056Z,18.07
2019-01-16T19:37:09.245Z,18.10
2019-01-16T19:39:53.798Z,18.80
2019-01-16T19:42:44.119Z,21.40
2019-01-16T19:45:31.446Z,20.90
2019-01-16T19:48:16.372Z,20.83
2019-01-16T19:51:06.330Z,19.53
2019-01-16T19:53:56.036Z,18.73
2019-01-16T19:56:35.363Z,17.53
2019-01-16T19:59:31.635Z,18.70
2019-01-16T20:02:19.152Z,19.00
2019-01-16T20:05:01.671Z,18.20
2019-01-16T20:07:48.901Z,19.37
2019-01-16T20:10:44.872Z,20.40
2019-01-16T20:13:43.919Z,18.60
2019-01-16T20:16:19.938Z,18.70
2019-01-16T20:19:12.184Z,18.87
2019-01-16T20:22:08.395Z,18.70
2019-01-16T20:24:48.306Z,17.87
2019-01-16T20:27:33.984Z,16.97
2019-01-16T20:30:21.204Z,17.43
2019-01-16T20:33:20.406Z,17.43
2019-01-16T20:36:14.904Z,18.57
2019-01-16T20:39:02.177Z,17.43
2019-01-16T20:41:51.134Z,17.90
2019-01-16T20:44:36.859Z,20.40
2019-01-16T20:47:29.065Z,22.37
2019-01-16T20:50:16.106Z,21.13
2019-01-16T20:53:01.496Z,21.93
2019-01-16T20:55:47.182Z,21.57
2019-01-16T20:58:37.007Z,20.07
2019-01-16T21:01:23.109Z,20.37
2019-01-16T21:04:09.182Z,21.07
2019-01-16T21:06:53.446Z,22.10
2019-01-16T21:09:43.225Z,21.20
2019-01-16T21:12:32.618Z,22.07
2019-01-16T21:15:25.653Z,21.07
2019-01-16T21:18:13.074Z,21.50
2019-01-16T21:20:58.238Z,19.83
2019-01-16T21:23:54.294Z,19.60
2019-01-16T21:26:39.892Z,19.57
2019-01-16T21:29:25.546Z,19.27
2019-01-16T21:32:12.713Z,19.77
2019-01-16T21:34:59.804Z,18.67
2019-01-16T21:37:34.449Z,18.53
2019-01-16T21:40:22.693Z,17.70
2019-01-16T21:43:08.179Z,19.37
2019-01-16T21:45:54.197Z,19.50
2019-01-16T21:48:32.644Z,19.43
2019-01-16T21:51:25.623Z,19.70
2019-01-16T21:54:15.682Z,19.30
2019-01-16T21:57:01.205Z,19.00
2019-01-16T21:59:54.164Z,20.57
2019-01-16T22:02:40.377Z,19.33
2019-01-16T22:05:16.803Z,20.87
2019-01-16T22:08:03.966Z,20.77
2019-01-16T22:10:49.375Z,22.40
2019-01-16T22:13:42.158Z,21.63
2019-01-16T22:16:34.851Z,20.87
2019-01-16T22:19:13.246Z,18.77
2019-01-16T22:21:59.633Z,20.30
2019-01-16T22:24:45.341Z,17.93
2019-01-16T22:27:30.891Z,18.03
2019-01-16T22:30:33.695Z,17.10
2019-01-16T22:33:09.650Z,17.60
2019-01-16T22:36:02.531Z,18.00
2019-01-16T22:38:45.111Z,17.97
2019-01-16T22:41:30.961Z,17.13
2019-01-16T22:44:20.978Z,16.33
2019-01-16T22:47:11.030Z,15.33
2019-01-16T22:50:04.328Z,16.23
2019-01-16T22:52:51.572Z,14.93
2019-01-16T22:55:48.034Z,15.03
2019-01-16T22:58:38.303Z,16.00
2019-01-16T23:01:17.328Z,16.43
2019-01-16T23:04:07.204Z,16.20
2019-01-16T23:07:00.444Z,16.27
2019-01-16T23:09:37.174Z,15.43
2019-01-16T23:12:24.276Z,14.67
2019-01-16T23:15:26.593Z,16.43
2019-01-16T23:18:14.543Z,16.47
2019-01-16T23:21:05.432Z,15.60
2019-01-16T23:24:01.440Z,16.03
2019-01-16T23:27:03.782Z,16.93
2019-01-16T23:29:53.472Z,16.60
2019-01-16T23:32:40.617Z,17.00
2019-01-16T23:35:36.822Z,16.47
2019-01-16T23:38:35.974Z,17.63
2019-01-16T23:41:38.108Z,18.37
2019-01-16T23:44:24.997Z,17.33
2019-01-16T23:47:05.541Z,17.73
2019-01-16T23:49:51.257Z,17.03
2019-01-16T23:52:47.136Z,18.47
2019-01-16T23:55:32.782Z,16.80
2019-01-16T23:58:19.918Z,19.10
